• Join FlightAware (Why Join?)
  • Login
  • US Flag 
10:34AM EDT


 

Airport Tracker/Info


-or-


 

Live Flight TrackerFlight Track Log ✈ SKW6330 ✈ 16-Apr-2013 ✈ KLAX - KFAT

Flight Track Log - Related Links

Times and Time Zones

All times are in EDT time to prevent confusion due to time zone crossing. See the SKW6330 flight status page for this flight to view local times or setup timezone preferences in your user account.

Time Position Orientation Groundspeed Altitude Reporting Facility
EDT Latitude Longitude Course Direction KTS MPH feet Rate Location/Type
07:25PM 33.9500 -118.4833 338° Northwest 168 193 3,000  Level Southern California TRACON
07:26PM 33.9561 -118.5272 280° West 172 198 3,900 1,440 Climbing Los Angeles Center
07:27PM 34.1192 -118.4859 320° Northwest  Level FlightAware Approximate
07:27PM 33.9792 -118.5828 297° West 183 211 5,500  Level Los Angeles Center
07:28PM 34.1792 -118.5305 331° Northwest  Level FlightAware Approximate
07:28PM 34.0064 -118.6381 301° West 190 219 6,900  Level Los Angeles Center
07:29PM 34.2416 -118.5667 North  Level FlightAware Approximate
07:29PM 34.0694 -118.6514 350° North 213 245 7,100  Level Los Angeles Center
07:30PM 34.3026 -118.5930 338° Northwest  Level FlightAware Approximate
07:30PM 34.1269 -118.6625 351° North 208 239 8,300  Level Los Angeles Center
07:31PM 34.1814 -118.6689 354° North 197 227 9,900 1,680 Climbing Los Angeles Center
07:32PM 34.2322 -118.6708 358° North 187 215 11,800 1,260 Climbing Los Angeles Center
07:33PM 34.2867 -118.6631 North 195 224 12,600 840 Climbing Los Angeles Center
07:34PM 34.3422 -118.6608 North 200 230 13,600 960 Climbing Los Angeles Center
07:35PM 34.3933 -118.6753 347° North 191 220 14,600 1,020 Climbing Los Angeles Center
07:36PM 34.4583 -118.6881 351° North 199 229 15,800 1,080 Climbing Los Angeles Center
07:37PM 34.5111 -118.7000 349° North 191 220 16,900 960 Climbing Los Angeles Center
07:38PM 34.5650 -118.7128 349° North 197 227 17,900 840 Climbing Los Angeles Center
07:39PM 34.6194 -118.7250 350° North 199 229 18,700 840 Climbing Los Angeles Center
07:40PM 34.6731 -118.7386 348° North 198 228 19,700 600 Climbing Los Angeles Center
07:41PM 34.7303 -118.7525 349° North 212 244 20,000 360 Climbing Los Angeles Center
07:42PM 34.8089 -118.7681 351° North 240 276 20,500 780 Climbing Los Angeles Center
07:43PM 34.8694 -118.7831 349° North 221 254 21,700 720 Climbing Los Angeles Center
07:44PM 34.9236 -118.7942 350° North 213 245 22,000 120 Climbing Los Angeles Center
07:45PM 34.9839 -118.8086 349° North 218 251 22,000  Level Los Angeles Center
07:46PM 35.0569 -118.8256 349° North 223 257 22,000  Level Los Angeles Center
07:47PM 35.1197 -118.8397 350° North 228 262 22,000  Level Los Angeles Center
07:48PM 35.1850 -118.8542 350° North 235 270 22,000  Level Los Angeles Center
07:49PM 35.2489 -118.8683 350° North 235 270 22,000  Level Los Angeles Center
07:50PM 35.3136 -118.8833 349° North 236 272 22,000  Level Los Angeles Center
07:51PM 35.3778 -118.8983 349° North 235 270 22,000  Level Los Angeles Center
07:52PM 35.4525 -118.9156 349° North 229 264 22,000  Level Los Angeles Center
07:53PM 35.5147 -118.9306 349° North 227 261 22,000  Level Los Angeles Center
07:54PM 35.5775 -118.9456 349° North 230 265 22,000  Level Los Angeles Center
07:56PM 35.6397 -118.9594 350° North 228 262 22,000 -240 Level Los Angeles Center
07:56PM 35.6650 -118.9656 349° North 230 265 21,700 -1,080 Descending Oakland Center
07:57PM 35.7444 -118.9844 349° North 238 274 20,400 -1,200 Descending Oakland Center
07:58PM 35.8078 -118.9992 349° North 236 272 19,300 -1,320 Descending Oakland Center
07:59PM 35.8736 -119.0150 349° North 238 274 17,800 -1,500 Descending Oakland Center
08:00PM 35.9414 -119.0369 345° North 246 283 16,300 -1,500 Descending Oakland Center
08:01PM 36.0089 -119.0689 339° North 256 295 14,800 -1,140 Descending Oakland Center
08:02PM 36.0750 -119.1011 339° North 257 296 14,000 -480 Descending Oakland Center
08:03PM 36.1356 -119.1308 338° Northwest 246 283 13,900 -120 Descending Oakland Center
08:04PM 36.1936 -119.1594 338° Northwest 233 268 13,800 -600 Descending Oakland Center
08:05PM 36.2578 -119.1867 341° North 243 280 12,700 -1,440 Descending Oakland Center
08:06PM 36.3389 -119.2244 339° North 257 296 10,900 -1,860 Descending Oakland Center
08:07PM 36.4075 -119.2572 339° North 263 303 9,000 -1,860 Descending Oakland Center
08:08PM 36.4667 -119.3000 330° Northwest 252 290 7,200 -1,560 Descending Oakland Center
08:09PM 36.5122 -119.3597 314° West 239 275 5,900 -1,080 Descending Oakland Center
08:10PM 36.5583 -119.4164 315° West 236 272 5,100 -840 Descending Oakland Center
08:11PM 36.6025 -119.4747 313° West 234 269 4,200 -1,020 Descending Oakland Center
08:12PM 36.6497 -119.5247 320° Northwest 225 259 3,100 -1,020 Descending Oakland Center
08:13PM 36.6936 -119.5767 317° Northwest 201 231 2,200 -720 Descending Oakland Center
08:14PM 36.7253 -119.6319 306° West 188 216 1,700 -540 Descending Oakland Center
08:15PM 36.7467 -119.6689 306° West 145 167 1,200 -660 Descending Oakland Center
08:16PM 36.7686 -119.7083 305° West 131 151 400 -780 Descending Oakland Center